createdAt,value
2019-01-24T00:00:31.040Z,-5.92
2019-01-24T00:02:59.539Z,-5.92
2019-01-24T00:05:27.997Z,-5.91
2019-01-24T00:07:56.508Z,-5.91
2019-01-24T00:10:24.967Z,-5.91
2019-01-24T00:12:53.393Z,-5.91
2019-01-24T00:15:21.997Z,-5.91
2019-01-24T00:17:50.429Z,-5.89
2019-01-24T00:20:18.951Z,-5.89
2019-01-24T00:22:47.390Z,-5.88
2019-01-24T00:25:15.851Z,-5.90
2019-01-24T00:27:44.289Z,-5.94
2019-01-24T00:30:14.692Z,-5.95
2019-01-24T00:32:43.241Z,-5.97
2019-01-24T00:35:11.799Z,-5.98
2019-01-24T00:37:40.299Z,-5.98
2019-01-24T00:40:17.754Z,-6.00
2019-01-24T00:42:46.257Z,-6.01
2019-01-24T00:45:14.958Z,-6.00
2019-01-24T00:47:43.660Z,-6.00
2019-01-24T00:50:14.063Z,-5.99
2019-01-24T00:52:42.502Z,-5.97
2019-01-24T00:55:13.110Z,-6.00
2019-01-24T00:57:41.675Z,-6.02
2019-01-24T01:00:16.294Z,-6.02
2019-01-24T01:02:44.725Z,-6.01
2019-01-24T01:05:13.558Z,-6.02
2019-01-24T01:07:42.041Z,-6.02
2019-01-24T01:10:11.738Z,-6.02
2019-01-24T01:12:40.241Z,-6.01
2019-01-24T01:15:19.716Z,-5.99
2019-01-24T01:17:48.315Z,-6.02
2019-01-24T01:20:19.258Z,-6.00
2019-01-24T01:22:47.840Z,-6.03
2019-01-24T01:25:16.346Z,-6.05
2019-01-24T01:27:45.345Z,-6.09
2019-01-24T01:30:17.209Z,-6.07
2019-01-24T01:32:45.701Z,-6.08
2019-01-24T01:35:14.400Z,-6.07
2019-01-24T01:37:43.002Z,-6.04
2019-01-24T01:40:14.344Z,-6.04
2019-01-24T01:42:42.873Z,-6.03
2019-01-24T01:45:14.049Z,-6.04
2019-01-24T01:47:42.580Z,-6.03
2019-01-24T01:50:14.252Z,-6.03
2019-01-24T01:52:42.709Z,-6.03
2019-01-24T01:55:11.478Z,-6.04
2019-01-24T01:57:39.939Z,-6.03
2019-01-24T02:00:11.548Z,-6.03
2019-01-24T02:02:40.012Z,-6.02
2019-01-24T02:05:10.369Z,-6.00
2019-01-24T02:07:38.885Z,-5.99
2019-01-24T02:10:10.516Z,-5.98
2019-01-24T02:12:38.962Z,-5.98
2019-01-24T02:15:09.737Z,-5.99
2019-01-24T02:17:38.168Z,-6.00
2019-01-24T02:20:09.763Z,-6.00
2019-01-24T02:22:38.211Z,-6.01
2019-01-24T02:25:09.080Z,-6.03
2019-01-24T02:27:37.592Z,-6.02
2019-01-24T02:30:15.052Z,-6.02
2019-01-24T02:32:43.497Z,-6.00
2019-01-24T02:35:11.916Z,-5.98
2019-01-24T02:37:40.437Z,-5.96
2019-01-24T02:40:10.091Z,-5.96
2019-01-24T02:42:38.609Z,-5.95
2019-01-24T02:45:10.339Z,-5.94
2019-01-24T02:47:38.871Z,-5.93
2019-01-24T02:50:13.243Z,-5.92
2019-01-24T02:52:41.772Z,-5.92
2019-01-24T02:55:12.544Z,-5.93
2019-01-24T02:57:41.004Z,-5.92
2019-01-24T03:00:17.521Z,-5.91
2019-01-24T03:02:45.937Z,-5.92
2019-01-24T03:05:17.475Z,-5.91
2019-01-24T03:07:46.004Z,-5.90
2019-01-24T03:10:15.182Z,-5.89
2019-01-24T03:12:43.711Z,-5.87
2019-01-24T03:15:14.699Z,-5.87
2019-01-24T03:17:43.229Z,-5.84
2019-01-24T03:20:13.199Z,-5.82
2019-01-24T03:22:41.732Z,-5.81
2019-01-24T03:25:12.200Z,-5.82
2019-01-24T03:27:40.667Z,-5.83
2019-01-24T03:30:17.964Z,-5.84
2019-01-24T03:32:46.437Z,-5.84
2019-01-24T03:35:17.557Z,-5.84
2019-01-24T03:37:46.166Z,-5.83
2019-01-24T03:40:15.233Z,-5.80
2019-01-24T03:42:43.774Z,-5.79
2019-01-24T03:45:14.811Z,-5.79
2019-01-24T03:47:43.340Z,-5.80
2019-01-24T03:50:17.313Z,-5.77
2019-01-24T03:52:45.848Z,-5.77
2019-01-24T03:55:16.019Z,-5.76
2019-01-24T03:57:44.547Z,-5.76
2019-01-24T04:00:18.422Z,-5.76
2019-01-24T04:02:46.947Z,-5.76
2019-01-24T04:05:15.525Z,-5.76
2019-01-24T04:07:43.979Z,-5.74
2019-01-24T04:10:17.258Z,-5.75
2019-01-24T04:12:45.716Z,-5.76
2019-01-24T04:15:16.859Z,-5.77
2019-01-24T04:17:45.290Z,-5.76
2019-01-24T04:20:13.897Z,-5.76
2019-01-24T04:22:42.325Z,-5.76
2019-01-24T04:25:11.023Z,-5.75
2019-01-24T04:27:39.531Z,-5.76
2019-01-24T04:30:13.555Z,-5.75
2019-01-24T04:32:41.986Z,-5.74
2019-01-24T04:35:11.485Z,-5.73
2019-01-24T04:37:39.915Z,-5.72
2019-01-24T04:40:11.581Z,-5.69
2019-01-24T04:42:40.079Z,-5.67
2019-01-24T04:45:10.787Z,-5.66
2019-01-24T04:47:39.293Z,-5.67
2019-01-24T04:50:10.995Z,-5.67
2019-01-24T04:52:39.420Z,-5.67
2019-01-24T04:55:10.624Z,-5.68
2019-01-24T04:57:39.059Z,-5.69
2019-01-24T05:00:13.339Z,-5.68
2019-01-24T05:02:41.773Z,-5.68
2019-01-24T05:05:10.400Z,-5.69
2019-01-24T05:07:38.833Z,-5.69
2019-01-24T05:10:08.341Z,-5.69
2019-01-24T05:12:36.777Z,-5.68
2019-01-24T05:15:06.415Z,-5.69
2019-01-24T05:17:34.929Z,-5.68
2019-01-24T05:20:04.347Z,-5.67
2019-01-24T05:22:32.783Z,-5.67
2019-01-24T05:25:01.258Z,-5.66
2019-01-24T05:27:30.811Z,-5.66
2019-01-24T05:29:59.425Z,-5.69
2019-01-24T05:32:27.860Z,-5.67
2019-01-24T05:34:56.318Z,-5.67
2019-01-24T05:37:24.747Z,-5.66
2019-01-24T05:39:53.208Z,-5.68
2019-01-24T05:42:21.649Z,-5.67
2019-01-24T05:44:50.177Z,-5.68
2019-01-24T05:47:18.623Z,-5.69
2019-01-24T05:49:47.088Z,-5.69
2019-01-24T05:52:19.701Z,-5.69
2019-01-24T05:54:45.719Z,-5.68
2019-01-24T05:57:14.157Z,-5.69
2019-01-24T05:59:42.623Z,-5.68
2019-01-24T06:02:11.059Z,-5.68
2019-01-24T06:04:39.517Z,-5.67
2019-01-24T06:07:08.020Z,-5.66
2019-01-24T06:09:36.488Z,-5.66
2019-01-24T06:12:04.984Z,-5.65
2019-01-24T06:14:33.428Z,-5.64
2019-01-24T06:17:01.950Z,-5.63
2019-01-24T06:19:30.379Z,-5.59
2019-01-24T06:21:58.859Z,-5.54
2019-01-24T06:24:27.298Z,-5.55
2019-01-24T06:26:55.762Z,-5.57
2019-01-24T06:29:24.195Z,-5.53
2019-01-24T06:31:52.657Z,-5.51
2019-01-24T06:34:21.091Z,-5.50
2019-01-24T06:36:49.626Z,-5.50
2019-01-24T06:39:18.069Z,-5.51
2019-01-24T06:41:46.538Z,-5.48
2019-01-24T06:44:14.968Z,-5.48
2019-01-24T06:46:43.431Z,-5.43
2019-01-24T06:49:11.865Z,-5.43
2019-01-24T06:51:40.326Z,-5.42
2019-01-24T06:54:08.758Z,-5.43
2019-01-24T06:56:37.220Z,-5.45
2019-01-24T06:59:05.651Z,-5.45
2019-01-24T07:01:34.116Z,-5.43
2019-01-24T07:04:02.548Z,-5.42
2019-01-24T07:06:31.086Z,-5.41
2019-01-24T07:08:59.519Z,-5.38
2019-01-24T07:11:28.052Z,-5.34
2019-01-24T07:13:56.486Z,-5.30
2019-01-24T07:16:24.949Z,-5.29
2019-01-24T07:18:53.852Z,-5.28
2019-01-24T07:21:22.417Z,-5.25
2019-01-24T07:23:50.854Z,-5.25
2019-01-24T07:26:19.323Z,-5.22
2019-01-24T07:28:47.765Z,-5.22
2019-01-24T07:31:16.239Z,-5.22
2019-01-24T07:33:44.673Z,-5.22
2019-01-24T07:36:13.106Z,-5.18
2019-01-24T07:38:41.561Z,-5.15
2019-01-24T07:41:09.989Z,-5.11
2019-01-24T07:43:38.471Z,-5.09
2019-01-24T07:46:07.046Z,-5.07
2019-01-24T07:48:35.508Z,-5.08
2019-01-24T07:51:04.081Z,-5.09
2019-01-24T07:53:32.541Z,-5.08
2019-01-24T07:56:00.980Z,-5.09
2019-01-24T07:58:29.449Z,-5.07
2019-01-24T08:00:57.878Z,-5.06
2019-01-24T08:03:26.340Z,-5.04
2019-01-24T08:05:54.777Z,-5.02
2019-01-24T08:08:23.235Z,-4.98
2019-01-24T08:10:51.679Z,-4.97
2019-01-24T08:13:20.206Z,-4.96
2019-01-24T08:15:48.645Z,-4.95
2019-01-24T08:18:17.140Z,-4.93
2019-01-24T08:20:45.577Z,-4.90
2019-01-24T08:23:14.058Z,-4.93
2019-01-24T08:25:42.565Z,-4.90
2019-01-24T08:28:10.967Z,-4.88
2019-01-24T08:30:39.522Z,-4.84
2019-01-24T08:33:08.020Z,-4.83
2019-01-24T08:35:36.480Z,-4.80
2019-01-24T08:38:05.587Z,-4.80
2019-01-24T08:40:34.049Z,-4.80
2019-01-24T08:43:02.631Z,-4.76
2019-01-24T08:45:31.093Z,-4.75
2019-01-24T08:47:59.534Z,-4.71
2019-01-24T08:50:28.362Z,-4.64
2019-01-24T08:52:56.870Z,-4.62
2019-01-24T08:55:31.356Z,-4.58
2019-01-24T08:57:59.860Z,-4.56
2019-01-24T09:00:28.390Z,-4.55
2019-01-24T09:02:57.165Z,-4.55
2019-01-24T09:05:25.697Z,-4.55
2019-01-24T09:07:54.200Z,-4.50
2019-01-24T09:10:34.340Z,-4.44
2019-01-24T09:13:02.831Z,-4.42
2019-01-24T09:15:31.365Z,-4.40
2019-01-24T09:17:59.866Z,-4.34
2019-01-24T09:20:28.354Z,-4.33
2019-01-24T09:22:56.837Z,-4.30
2019-01-24T09:25:25.352Z,-4.27
2019-01-24T09:27:53.812Z,-4.19
2019-01-24T09:30:29.860Z,-4.13
2019-01-24T09:32:58.297Z,-4.09
2019-01-24T09:35:26.740Z,-4.01
2019-01-24T09:37:55.333Z,-3.96
2019-01-24T09:40:24.308Z,-3.92
2019-01-24T09:42:52.915Z,-3.87
2019-01-24T09:45:23.275Z,-3.84
2019-01-24T09:47:52.453Z,-3.86
2019-01-24T09:50:22.829Z,-3.82
2019-01-24T09:52:51.294Z,-3.74
2019-01-24T09:55:19.859Z,-3.65
2019-01-24T09:57:48.577Z,-3.55
2019-01-24T10:00:25.455Z,-3.45
2019-01-24T10:02:54.176Z,-3.37
2019-01-24T10:05:22.741Z,-3.35
2019-01-24T10:07:51.196Z,-3.36
2019-01-24T10:10:21.659Z,-3.31
2019-01-24T10:12:50.556Z,-3.25
2019-01-24T10:15:20.220Z,-3.23
2019-01-24T10:17:48.741Z,-3.33
2019-01-24T10:20:20.082Z,-3.32
2019-01-24T10:22:48.962Z,-3.28
2019-01-24T10:25:20.228Z,-3.22
2019-01-24T10:27:48.679Z,-3.19
2019-01-24T10:30:20.290Z,-3.17
2019-01-24T10:32:49.093Z,-3.13
2019-01-24T10:35:18.229Z,-3.17
2019-01-24T10:37:46.849Z,-3.21
2019-01-24T10:40:21.237Z,-3.18
2019-01-24T10:42:49.957Z,-3.17
2019-01-24T10:45:20.335Z,-3.09
2019-01-24T10:47:50.016Z,-3.05
2019-01-24T10:50:20.406Z,-3.02
2019-01-24T10:52:48.904Z,-2.92
2019-01-24T10:55:19.603Z,-2.85
2019-01-24T10:57:48.572Z,-2.84
2019-01-24T11:00:28.745Z,-2.99
2019-01-24T11:02:57.303Z,-2.93
2019-01-24T11:05:25.819Z,-2.90
2019-01-24T11:07:54.240Z,-2.85
2019-01-24T11:10:22.838Z,-2.75
2019-01-24T11:12:51.260Z,-2.79
2019-01-24T11:15:22.693Z,-2.92
2019-01-24T11:17:51.190Z,-3.05
2019-01-24T11:20:20.478Z,-3.10
2019-01-24T11:22:49.845Z,-3.04
2019-01-24T11:25:20.918Z,-2.95
2019-01-24T11:27:49.342Z,-2.92
2019-01-24T11:30:31.159Z,-2.87
2019-01-24T11:33:00.159Z,-3.14
2019-01-24T11:35:33.947Z,-3.12
2019-01-24T11:38:02.372Z,-3.07
2019-01-24T11:40:31.015Z,-2.95
2019-01-24T11:42:59.501Z,-2.88
2019-01-24T11:45:33.619Z,-2.95
2019-01-24T11:48:02.044Z,-2.95
2019-01-24T11:50:30.573Z,-2.98
2019-01-24T11:52:59.002Z,-2.88
2019-01-24T11:55:27.450Z,-2.77
2019-01-24T11:57:55.949Z,-2.88
2019-01-24T12:00:28.418Z,-2.91
2019-01-24T12:02:56.980Z,-3.00
2019-01-24T12:05:25.606Z,-2.90
2019-01-24T12:07:54.164Z,-3.01
2019-01-24T12:10:27.315Z,-2.93
2019-01-24T12:12:56.023Z,-3.10
2019-01-24T12:15:31.531Z,-2.92
2019-01-24T12:18:00.091Z,-2.95
2019-01-24T12:20:29.165Z,-2.85
2019-01-24T12:22:57.964Z,-3.02
2019-01-24T12:25:26.406Z,-3.06
2019-01-24T12:27:54.882Z,-3.00
2019-01-24T12:30:28.342Z,-2.99
2019-01-24T12:32:57.328Z,-2.94
2019-01-24T12:35:26.036Z,-2.82
2019-01-24T12:37:54.608Z,-2.80
2019-01-24T12:40:23.040Z,-3.01
2019-01-24T12:42:51.606Z,-3.12
2019-01-24T12:45:26.464Z,-3.20
2019-01-24T12:47:55.083Z,-3.24
2019-01-24T12:50:23.955Z,-3.30
2019-01-24T12:52:52.544Z,-3.35
2019-01-24T12:55:21.315Z,-3.22
2019-01-24T12:57:49.934Z,-3.13
2019-01-24T13:00:21.540Z,-3.09
2019-01-24T13:02:49.989Z,-3.02
2019-01-24T13:05:18.591Z,-2.96
2019-01-24T13:07:47.114Z,-3.02
2019-01-24T13:10:18.181Z,-3.02
2019-01-24T13:12:46.699Z,-3.07
2019-01-24T13:15:18.406Z,-2.92
2019-01-24T13:17:46.922Z,-3.11
2019-01-24T13:20:16.708Z,-3.20
2019-01-24T13:22:45.508Z,-3.27
2019-01-24T13:25:25.841Z,-3.26
2019-01-24T13:27:54.477Z,-3.34
2019-01-24T13:30:28.469Z,-3.33
2019-01-24T13:32:57.074Z,-3.29
2019-01-24T13:35:25.762Z,-3.36
2019-01-24T13:37:54.365Z,-3.38
2019-01-24T13:40:25.241Z,-3.40
2019-01-24T13:42:53.968Z,-3.51
2019-01-24T13:45:25.037Z,-3.48
2019-01-24T13:47:53.940Z,-3.54
2019-01-24T13:50:22.519Z,-3.50
2019-01-24T13:52:51.230Z,-3.46
2019-01-24T13:55:20.096Z,-3.29
2019-01-24T13:57:49.788Z,-3.30
2019-01-24T14:00:27.258Z,-3.32
2019-01-24T14:03:04.265Z,-3.33
2019-01-24T14:05:32.834Z,-3.40
2019-01-24T14:08:01.421Z,-3.45
2019-01-24T14:10:29.989Z,-3.47
2019-01-24T14:12:58.696Z,-3.53
2019-01-24T14:15:27.264Z,-3.61
2019-01-24T14:17:56.067Z,-3.68
2019-01-24T14:20:24.948Z,-3.75
2019-01-24T14:22:53.647Z,-3.76
2019-01-24T14:25:22.425Z,-3.74
2019-01-24T14:27:51.022Z,-3.73
2019-01-24T14:30:22.460Z,-3.73
2019-01-24T14:32:51.338Z,-3.72
2019-01-24T14:35:20.139Z,-3.77
2019-01-24T14:37:49.281Z,-3.78
2019-01-24T14:40:17.985Z,-3.74
2019-01-24T14:42:47.169Z,-3.73
2019-01-24T14:45:27.316Z,-3.72
2019-01-24T14:47:56.434Z,-3.72
2019-01-24T14:50:30.124Z,-3.73
2019-01-24T14:52:58.808Z,-3.73
2019-01-24T14:55:27.415Z,-3.73
2019-01-24T14:57:55.989Z,-3.75
2019-01-24T15:00:30.076Z,-3.78
2019-01-24T15:02:58.738Z,-3.80
2019-01-24T15:05:27.534Z,-3.81
2019-01-24T15:07:56.299Z,-3.83
2019-01-24T15:10:25.713Z,-3.83
2019-01-24T15:12:56.486Z,-3.85
2019-01-24T15:15:25.390Z,-3.87
2019-01-24T15:17:54.162Z,-3.87
2019-01-24T15:20:22.983Z,-3.87
2019-01-24T15:22:51.753Z,-3.89
2019-01-24T15:25:22.643Z,-3.90
2019-01-24T15:27:52.467Z,-3.90
2019-01-24T15:30:26.483Z,-3.91
2019-01-24T15:32:55.249Z,-3.91
2019-01-24T15:35:25.791Z,-3.94
2019-01-24T15:37:54.985Z,-3.96
2019-01-24T15:40:32.578Z,-3.97
2019-01-24T15:43:02.486Z,-4.00
2019-01-24T15:45:31.944Z,-3.98
2019-01-24T15:48:01.288Z,-4.00
2019-01-24T15:50:30.687Z,-4.01
2019-01-24T15:52:59.699Z,-4.03
2019-01-24T15:55:29.223Z,-4.03
2019-01-24T15:57:58.633Z,-4.03
2019-01-24T16:00:32.432Z,-4.02
2019-01-24T16:03:01.551Z,-4.03
2019-01-24T16:05:30.971Z,-4.05
2019-01-24T16:08:01.855Z,-3.11
2019-01-24T16:10:31.265Z,-3.38
2019-01-24T16:13:00.768Z,-3.71
2019-01-24T16:15:32.334Z,-3.87
2019-01-24T16:18:01.306Z,-3.95
2019-01-24T16:20:31.004Z,-4.00
2019-01-24T16:23:00.806Z,-4.03
2019-01-24T16:25:32.582Z,-4.05
2019-01-24T16:28:02.405Z,-4.05
2019-01-24T16:30:33.366Z,-4.03
2019-01-24T16:33:03.083Z,-4.00
2019-01-24T16:35:32.912Z,-4.01
2019-01-24T16:38:09.012Z,-3.99
2019-01-24T16:40:34.014Z,-4.01
2019-01-24T16:43:04.078Z,-4.02
2019-01-24T16:45:33.875Z,-4.04
2019-01-24T16:48:04.035Z,-4.07
2019-01-24T16:50:33.638Z,-4.08
2019-01-24T16:53:03.899Z,-4.10
2019-01-24T16:55:34.021Z,-4.12
2019-01-24T16:58:04.086Z,-4.12
2019-01-24T17:00:39.129Z,-4.14
2019-01-24T17:03:09.561Z,-4.15
2019-01-24T17:05:39.483Z,-4.16
2019-01-24T17:08:16.312Z,-4.18
2019-01-24T17:10:41.183Z,-4.17
2019-01-24T17:13:10.838Z,-4.18
2019-01-24T17:15:42.150Z,-4.17
2019-01-24T17:18:11.823Z,-4.19
2019-01-24T17:20:41.742Z,-4.18
2019-01-24T17:23:11.900Z,-4.19
2019-01-24T17:25:41.592Z,-4.19
2019-01-24T17:28:11.453Z,-4.21
2019-01-24T17:30:41.365Z,-4.22
2019-01-24T17:33:11.517Z,-4.22
2019-01-24T17:35:41.426Z,-4.23
2019-01-24T17:38:11.494Z,-4.23
2019-01-24T17:40:41.760Z,-4.22
2019-01-24T17:43:11.658Z,-4.23
2019-01-24T17:45:41.575Z,-4.24
2019-01-24T17:48:11.325Z,-4.24
2019-01-24T17:50:41.223Z,-4.25
2019-01-24T17:53:10.984Z,-4.24
2019-01-24T17:55:42.817Z,-4.25
2019-01-24T17:58:12.831Z,-4.25
2019-01-24T18:00:44.424Z,-4.26
2019-01-24T18:03:14.774Z,-4.26
2019-01-24T18:05:44.820Z,-4.25
2019-01-24T18:08:15.251Z,-4.26
2019-01-24T18:10:45.528Z,-4.27
2019-01-24T18:13:15.839Z,-4.29
2019-01-24T18:15:46.001Z,-4.30
2019-01-24T18:18:15.812Z,-4.30
2019-01-24T18:20:46.078Z,-4.29
2019-01-24T18:23:16.319Z,-4.30
2019-01-24T18:25:46.545Z,-4.31
2019-01-24T18:28:17.856Z,-4.31
2019-01-24T18:30:48.557Z,-4.30
2019-01-24T18:33:18.980Z,-4.32
2019-01-24T18:35:49.274Z,-4.31
2019-01-24T18:38:19.161Z,-4.31
2019-01-24T18:40:49.315Z,-4.33
2019-01-24T18:43:20.139Z,-4.32
2019-01-24T18:45:54.598Z,-4.32
2019-01-24T18:48:24.913Z,-4.30
2019-01-24T18:50:55.279Z,-4.28
2019-01-24T18:53:25.906Z,-4.26
2019-01-24T18:55:56.072Z,-4.26
2019-01-24T18:58:26.387Z,-4.27
2019-01-24T19:00:56.748Z,-4.28
2019-01-24T19:03:27.179Z,-4.29
2019-01-24T19:05:57.237Z,-4.29
2019-01-24T19:08:27.444Z,-4.30
2019-01-24T19:10:57.812Z,-4.31
2019-01-24T19:13:28.029Z,-4.31
2019-01-24T19:15:58.695Z,-4.28
2019-01-24T19:18:29.117Z,-4.24
2019-01-24T19:20:59.597Z,-4.23
2019-01-24T19:23:30.312Z,-4.24
2019-01-24T19:26:00.889Z,-4.25
2019-01-24T19:28:31.710Z,-4.22
2019-01-24T19:31:01.980Z,-4.22
2019-01-24T19:33:32.298Z,-4.24
2019-01-24T19:36:02.865Z,-4.25
2019-01-24T19:38:33.693Z,-4.27
2019-01-24T19:41:04.466Z,-4.29
2019-01-24T19:43:35.502Z,-4.29
2019-01-24T19:46:05.971Z,-4.31
2019-01-24T19:48:36.694Z,-4.31
2019-01-24T19:51:07.584Z,-4.30
2019-01-24T19:53:38.036Z,-4.32
2019-01-24T19:56:08.771Z,-4.32
2019-01-24T19:58:39.089Z,-4.31
2019-01-24T20:01:09.264Z,-4.32
2019-01-24T20:03:40.076Z,-4.32
2019-01-24T20:06:10.445Z,-4.31
2019-01-24T20:08:41.078Z,-4.32
2019-01-24T20:11:11.810Z,-4.32
2019-01-24T20:13:42.900Z,-4.33
2019-01-24T20:16:13.345Z,-4.33
2019-01-24T20:18:43.865Z,-4.33
2019-01-24T20:21:14.034Z,-4.33
2019-01-24T20:23:44.448Z,-4.33
2019-01-24T20:26:14.718Z,-4.33
2019-01-24T20:28:45.130Z,-4.33
2019-01-24T20:31:15.604Z,-4.34
2019-01-24T20:33:46.023Z,-4.33
2019-01-24T20:36:16.394Z,-4.33
2019-01-24T20:38:46.809Z,-4.34
2019-01-24T20:41:16.958Z,-4.33
2019-01-24T20:43:46.885Z,-4.33
2019-01-24T20:46:16.941Z,-4.34
2019-01-24T20:48:47.060Z,-4.35
2019-01-24T20:51:17.013Z,-4.36
2019-01-24T20:53:47.326Z,-4.37
2019-01-24T20:56:17.197Z,-4.38
2019-01-24T20:58:46.383Z,-4.40
2019-01-24T21:01:15.831Z,-4.40
2019-01-24T21:03:46.756Z,-4.41
2019-01-24T21:06:16.917Z,-4.41
2019-01-24T21:08:46.888Z,-4.40
2019-01-24T21:11:16.958Z,-4.38
2019-01-24T21:13:47.014Z,-4.38
2019-01-24T21:16:17.070Z,-4.38
2019-01-24T21:18:47.370Z,-4.39
2019-01-24T21:21:17.300Z,-4.39
2019-01-24T21:23:47.161Z,-4.39
2019-01-24T21:26:16.791Z,-4.40
2019-01-24T21:28:46.619Z,-4.42
2019-01-24T21:31:16.317Z,-4.42
2019-01-24T21:33:45.871Z,-4.42
2019-01-24T21:36:15.365Z,-4.42
2019-01-24T21:38:44.201Z,-4.41
2019-01-24T21:41:13.001Z,-4.41
2019-01-24T21:43:41.697Z,-4.41
2019-01-24T21:46:10.788Z,-4.42
2019-01-24T21:48:40.067Z,-4.41
2019-01-24T21:51:11.289Z,-4.42
2019-01-24T21:53:40.526Z,-4.43
2019-01-24T21:56:10.025Z,-4.43
2019-01-24T21:58:39.775Z,-4.45
2019-01-24T22:01:09.414Z,-4.45
2019-01-24T22:03:38.931Z,-4.47
2019-01-24T22:06:08.432Z,-4.47
2019-01-24T22:08:38.608Z,-4.47
2019-01-24T22:11:07.374Z,-4.47
2019-01-24T22:13:36.276Z,-4.46
2019-01-24T22:16:05.162Z,-4.47
2019-01-24T22:18:33.807Z,-4.48
2019-01-24T22:21:02.413Z,-4.48
2019-01-24T22:23:31.010Z,-4.48
2019-01-24T22:25:59.591Z,-4.48
2019-01-24T22:28:28.182Z,-4.47
2019-01-24T22:30:57.588Z,-4.50
2019-01-24T22:33:26.186Z,-4.52
2019-01-24T22:35:54.626Z,-4.53
2019-01-24T22:38:23.090Z,-4.55
2019-01-24T22:40:51.656Z,-4.54
2019-01-24T22:43:20.110Z,-4.55
2019-01-24T22:45:48.546Z,-4.56
2019-01-24T22:48:17.012Z,-4.56
2019-01-24T22:50:45.449Z,-4.56
2019-01-24T22:53:13.911Z,-4.58
2019-01-24T22:55:42.348Z,-4.58
2019-01-24T22:58:10.813Z,-4.59
2019-01-24T23:00:46.674Z,-4.62
2019-01-24T23:03:17.483Z,-4.62
2019-01-24T23:05:45.990Z,-4.63
2019-01-24T23:08:14.453Z,-4.64
2019-01-24T23:10:42.957Z,-4.64
2019-01-24T23:13:11.420Z,-4.66
2019-01-24T23:15:39.925Z,-4.65
2019-01-24T23:18:08.386Z,-4.66
2019-01-24T23:20:36.903Z,-4.67
2019-01-24T23:23:05.505Z,-4.68
2019-01-24T23:25:34.037Z,-4.67
2019-01-24T23:28:02.470Z,-4.67
2019-01-24T23:30:30.932Z,-4.68
2019-01-24T23:32:59.439Z,-4.68
2019-01-24T23:35:27.963Z,-4.68
2019-01-24T23:37:56.397Z,-4.71
2019-01-24T23:40:24.859Z,-4.70
2019-01-24T23:42:53.293Z,-4.71
2019-01-24T23:45:21.759Z,-4.71
2019-01-24T23:47:50.180Z,-4.71
2019-01-24T23:50:18.649Z,-4.71
2019-01-24T23:52:47.148Z,-4.71
2019-01-24T23:55:15.684Z,-4.71
2019-01-24T23:57:44.197Z,-4.72
